Terminal Aerodrome Forecast
Issued by NWS Newport/Morehead City, NC

Home | Current Version | Previous Version | Text Only | Print | Product List | Glossary On
Versions: 1 2 3 4 5 6 7 8 9 10 11 12 13 14 15 16 17 18
000
FTUS42 KMHX 232202 AAC
TAFEWN
TAF AMD
KEWN 232202Z 2322/2418 17010G20KT P6SM SCT035 OVC050
      TEMPO 2322/2323 2SM SHRA BKN035
     FM240400 18011G18KT 4SM -SHRA VCTS SCT020CB OVC040
     FM240800 18009KT 4SM -SHRA VCTS SCT007 OVC015CB
     FM241200 20008KT P6SM -SHRA OVC025=

USA.gov is the U.S. government's official web portal to all federal, state and local government web resources and services.